Time;durP1;ratioP1;P1;durP2;ratioP2;P2;SDS_P1;SDS_P2;PMS_P1;PMS_P2;Temp;Humidity;BMP_temperature;BMP_pressure;BME280_temperature;BME280_humidity;BME280_pressure;Samples;Min_cycle;Max_cycle;Signal;HPM_P1;HPM_P2
2023/03/17 00:01:20;;;;;;;1.70;1.52;;;6.50;99.90;;;;;;4964051;28;20628;-69
2023/03/17 00:03:50;;;;;;;1.30;1.05;;;6.40;99.90;;;;;;4962491;28;20314;-69
2023/03/17 00:06:23;;;;;;;1.25;0.98;;;6.40;99.90;;;;;;4962207;28;20208;-69
2023/03/17 00:08:51;;;;;;;1.52;0.82;;;6.40;99.90;;;;;;4959867;28;20213;-69
2023/03/17 00:11:19;;;;;;;0.90;0.80;;;6.40;99.90;;;;;;4964362;28;20581;-70
2023/03/17 00:13:48;;;;;;;1.88;1.00;;;6.50;99.90;;;;;;4959268;28;20240;-69
2023/03/17 00:16:18;;;;;;;0.80;0.80;;;6.80;99.90;;;;;;4964798;28;20209;-69
2023/03/17 00:18:49;;;;;;;1.17;1.08;;;6.90;99.90;;;;;;4961296;28;20212;-68
2023/03/17 00:21:21;;;;;;;1.13;1.00;;;6.90;99.90;;;;;;4963008;28;20294;-69
2023/03/17 00:23:51;;;;;;;0.60;0.60;;;6.90;99.90;;;;;;4965622;28;20210;-70
2023/03/17 00:26:19;;;;;;;1.08;1.00;;;6.60;99.90;;;;;;4964244;28;20219;-68
2023/03/17 00:28:49;;;;;;;0.90;0.75;;;6.50;99.90;;;;;;4963012;28;20213;-69
2023/03/17 00:31:21;;;;;;;1.10;1.08;;;6.40;99.90;;;;;;4964192;28;20238;-70
2023/03/17 00:33:52;;;;;;;1.25;1.13;;;6.30;99.90;;;;;;4960338;28;20203;-70
2023/03/17 00:36:23;;;;;;;1.17;0.95;;;6.20;99.90;;;;;;4963148;28;20245;-70
2023/03/17 00:38:51;;;;;;;0.85;0.85;;;6.10;99.90;;;;;;4965255;28;20201;-70
2023/03/17 00:41:19;;;;;;;1.63;1.02;;;6.40;99.90;;;;;;4964034;28;20260;-70
2023/03/17 00:43:47;;;;;;;1.70;1.60;;;6.30;99.90;;;;;;4961708;28;20240;-70
2023/03/17 00:46:16;;;;;;;1.25;1.02;;;6.40;99.90;;;;;;4962183;28;20220;-70
2023/03/17 00:48:45;;;;;;;1.10;0.70;;;6.40;99.90;;;;;;4964898;28;20212;-67
2023/03/17 00:51:15;;;;;;;1.45;1.00;;;6.40;99.90;;;;;;4958365;28;20238;-70
2023/03/17 00:53:44;;;;;;;1.35;0.95;;;6.30;99.90;;;;;;4964915;28;20292;-70
2023/03/17 00:56:15;;;;;;;1.05;0.95;;;6.30;99.90;;;;;;4964704;28;20660;-71
2023/03/17 00:58:43;;;;;;;1.63;1.38;;;6.40;99.90;;;;;;4961559;28;20213;-70
2023/03/17 01:01:11;;;;;;;1.05;0.85;;;6.20;99.90;;;;;;4961481;28;20290;-71
2023/03/17 01:03:40;;;;;;;0.90;0.70;;;6.10;99.90;;;;;;4957042;28;20260;-68
2023/03/17 01:06:11;;;;;;;1.15;0.98;;;6.00;99.90;;;;;;4964610;28;20231;-70
2023/03/17 01:08:41;;;;;;;1.40;1.30;;;5.90;99.90;;;;;;4963659;28;20700;-70
2023/03/17 01:11:15;;;;;;;1.45;1.35;;;5.90;99.90;;;;;;4964957;28;20214;-71
2023/03/17 01:13:42;;;;;;;1.02;0.88;;;5.90;99.90;;;;;;4954070;28;20213;-70
2023/03/17 01:16:11;;;;;;;1.60;0.93;;;5.90;99.90;;;;;;4961514;28;20294;-71
2023/03/17 01:18:39;;;;;;;2.75;0.80;;;5.90;99.90;;;;;;4953452;28;20250;-70
2023/03/17 01:21:07;;;;;;;0.93;0.88;;;5.90;99.90;;;;;;4961166;28;20233;-70
2023/03/17 01:23:36;;;;;;;1.48;0.90;;;5.90;99.90;;;;;;4963772;28;20240;-70
2023/03/17 01:26:06;;;;;;;5.22;1.45;;;5.80;99.90;;;;;;4963882;28;20320;-70
2023/03/17 01:28:34;;;;;;;0.75;0.68;;;5.90;99.90;;;;;;4959851;28;20224;-68
2023/03/17 01:31:02;;;;;;;1.33;1.05;;;5.90;99.90;;;;;;4964499;28;20248;-69
2023/03/17 01:33:30;;;;;;;4.00;1.00;;;5.90;99.90;;;;;;4963542;28;20742;-69
2023/03/17 01:35:58;;;;;;;0.70;0.60;;;5.90;99.90;;;;;;4964319;28;20201;-70
2023/03/17 01:38:26;;;;;;;1.00;0.80;;;5.90;99.90;;;;;;4962411;28;20215;-71
2023/03/17 01:40:54;;;;;;;0.95;0.90;;;5.80;99.90;;;;;;4960991;28;20236;-70
2023/03/17 01:43:26;;;;;;;1.23;1.13;;;5.90;99.90;;;;;;4961953;28;20297;-71
2023/03/17 01:46:23;;;;;;;1.52;1.27;;;5.80;99.90;;;;;;4960345;28;20234;-68
2023/03/17 01:49:15;;;;;;;1.15;1.05;;;5.80;99.90;;;;;;4927714;28;20848;-69
2023/03/17 01:51:51;;;;;;;1.52;1.25;;;5.80;99.90;;;;;;4953424;28;20293;-70
2023/03/17 01:54:28;;;;;;;1.45;1.02;;;5.80;99.90;;;;;;4961029;28;20264;-70
2023/03/17 01:57:00;;;;;;;0.93;0.93;;;5.80;99.90;;;;;;4964320;28;20214;-70
2023/03/17 01:59:36;;;;;;;5.10;1.40;;;5.80;99.90;;;;;;4956873;28;20240;-70
2023/03/17 02:02:09;;;;;;;1.30;1.00;;;5.80;99.90;;;;;;4964257;28;20226;-70
2023/03/17 02:04:38;;;;;;;1.67;1.05;;;5.80;99.90;;;;;;4952996;28;20288;-70
2023/03/17 02:07:07;;;;;;;0.95;0.85;;;5.80;99.90;;;;;;4960731;28;20212;-71
2023/03/17 02:09:35;;;;;;;0.80;0.80;;;5.80;99.90;;;;;;4962799;28;20233;-70
2023/03/17 02:12:05;;;;;;;1.48;1.20;;;5.70;99.90;;;;;;4964085;28;20205;-69
2023/03/17 02:14:35;;;;;;;1.58;1.48;;;5.60;99.90;;;;;;4961568;28;20227;-70
2023/03/17 02:17:03;;;;;;;1.23;1.13;;;5.70;99.90;;;;;;4959822;28;20237;-71
2023/03/17 02:19:30;;;;;;;1.73;0.90;;;5.60;99.90;;;;;;4961472;28;20252;-70
2023/03/17 02:22:01;;;;;;;1.60;1.17;;;5.70;99.90;;;;;;4960726;28;20673;-70
2023/03/17 02:24:32;;;;;;;1.23;1.02;;;5.70;99.90;;;;;;4962048;28;20755;-70
2023/03/17 02:27:06;;;;;;;0.90;0.90;;;5.70;99.90;;;;;;4964059;28;20735;-70
2023/03/17 02:29:36;;;;;;;1.45;1.35;;;5.70;99.90;;;;;;4955444;28;20308;-71
2023/03/17 02:32:05;;;;;;;1.55;1.23;;;5.70;99.90;;;;;;4963848;28;20214;-70
2023/03/17 02:34:34;;;;;;;1.30;0.75;;;5.70;99.90;;;;;;4960801;28;20237;-70
2023/03/17 02:37:04;;;;;;;1.17;1.08;;;5.70;99.90;;;;;;4960505;28;20281;-70
2023/03/17 02:39:32;;;;;;;1.25;0.80;;;5.70;99.90;;;;;;4962067;28;20675;-71
2023/03/17 02:42:00;;;;;;;3.03;1.30;;;5.80;99.90;;;;;;4963825;28;20215;-71
2023/03/17 02:44:28;;;;;;;2.13;1.45;;;5.80;99.90;;;;;;4962113;28;20213;-71
2023/03/17 02:46:55;;;;;;;1.50;1.25;;;5.90;99.90;;;;;;4960717;28;20705;-71
2023/03/17 02:49:24;;;;;;;1.30;1.20;;;6.00;99.90;;;;;;4960661;28;20244;-70
2023/03/17 02:51:52;;;;;;;2.75;0.80;;;6.00;99.90;;;;;;4959866;28;20280;-71
2023/03/17 02:54:22;;;;;;;1.38;1.27;;;6.00;99.90;;;;;;4960327;28;20300;-70
2023/03/17 02:56:50;;;;;;;1.10;0.90;;;6.00;99.90;;;;;;4965470;28;20287;-71
2023/03/17 02:59:18;;;;;;;1.15;1.05;;;6.00;99.90;;;;;;4966998;28;20235;-70
2023/03/17 03:01:47;;;;;;;1.15;1.05;;;5.90;99.90;;;;;;4963663;28;20293;-69
2023/03/17 03:04:15;;;;;;;1.50;1.40;;;5.70;99.90;;;;;;4969928;28;20291;-70
2023/03/17 03:06:43;;;;;;;1.92;1.52;;;5.70;99.90;;;;;;4962921;28;20308;-70
2023/03/17 03:09:12;;;;;;;1.00;0.90;;;5.60;99.90;;;;;;4963600;28;20248;-70
2023/03/17 03:11:41;;;;;;;0.80;0.70;;;5.60;99.90;;;;;;4966001;28;20218;-70
2023/03/17 03:14:10;;;;;;;1.10;1.00;;;5.50;99.90;;;;;;4966911;28;20219;-70
2023/03/17 03:16:38;;;;;;;1.48;0.70;;;5.60;99.90;;;;;;4964612;28;20205;-70
2023/03/17 03:19:07;;;;;;;1.70;0.80;;;5.50;99.90;;;;;;4963068;28;20238;-70
2023/03/17 03:21:36;;;;;;;2.45;1.77;;;5.60;99.90;;;;;;4965360;28;20214;-70
2023/03/17 03:24:05;;;;;;;1.48;1.15;;;5.60;99.90;;;;;;4961216;28;20217;-70
2023/03/17 03:26:33;;;;;;;1.13;0.95;;;5.60;99.90;;;;;;4964855;28;20234;-70
2023/03/17 03:29:02;;;;;;;1.20;1.10;;;5.50;99.90;;;;;;4961138;28;20311;-70
2023/03/17 03:31:30;;;;;;;0.98;0.90;;;5.40;99.90;;;;;;4964471;28;20223;-70
2023/03/17 03:33:58;;;;;;;1.25;1.15;;;5.40;99.90;;;;;;4966569;28;20215;-70
2023/03/17 03:36:26;;;;;;;1.63;1.25;;;5.40;99.90;;;;;;4965604;28;20216;-70
2023/03/17 03:38:54;;;;;;;0.88;0.88;;;5.50;99.90;;;;;;4962853;28;20290;-68
2023/03/17 03:41:22;;;;;;;2.08;1.20;;;5.40;99.90;;;;;;4962118;28;20671;-69
2023/03/17 03:43:50;;;;;;;1.38;1.05;;;5.40;99.90;;;;;;4966315;28;20295;-69
2023/03/17 03:46:19;;;;;;;0.88;0.75;;;5.30;99.90;;;;;;4966412;28;20240;-69
2023/03/17 03:48:47;;;;;;;1.48;1.38;;;5.30;99.90;;;;;;4955014;28;20237;-70
2023/03/17 03:51:15;;;;;;;1.20;1.10;;;5.30;99.90;;;;;;4962742;28;20297;-69
2023/03/17 03:53:43;;;;;;;0.77;0.77;;;5.30;99.90;;;;;;4965405;28;20201;-69
2023/03/17 03:56:11;;;;;;;1.30;0.90;;;5.20;99.90;;;;;;4965694;28;20213;-70
2023/03/17 03:58:40;;;;;;;1.75;1.38;;;5.10;99.90;;;;;;4957912;28;20219;-70
2023/03/17 04:01:09;;;;;;;1.65;1.00;;;5.10;99.90;;;;;;4960076;28;20296;-70
2023/03/17 04:03:39;;;;;;;1.08;0.98;;;5.10;99.90;;;;;;4964168;28;20296;-70
2023/03/17 04:06:07;;;;;;;1.55;1.30;;;5.10;99.90;;;;;;4965932;28;20311;-71
2023/03/17 04:08:35;;;;;;;1.20;1.08;;;5.10;99.90;;;;;;4963434;28;20217;-70
2023/03/17 04:11:03;;;;;;;1.23;1.13;;;5.00;99.90;;;;;;4962416;28;20210;-70
2023/03/17 04:13:31;;;;;;;1.08;0.98;;;5.00;99.90;;;;;;4961146;28;20257;-70
2023/03/17 04:15:58;;;;;;;1.15;0.95;;;4.90;99.90;;;;;;4958668;28;20205;-70
2023/03/17 04:18:27;;;;;;;1.20;1.00;;;4.80;99.90;;;;;;4964812;28;20222;-69
2023/03/17 04:20:56;;;;;;;0.88;0.70;;;4.80;99.90;;;;;;4965848;28;20239;-68
2023/03/17 04:23:24;;;;;;;1.77;1.52;;;4.90;99.90;;;;;;4965613;28;20211;-68
2023/03/17 04:25:52;;;;;;;2.67;1.70;;;5.00;99.90;;;;;;4962515;28;20301;-70
2023/03/17 04:28:21;;;;;;;1.17;1.05;;;5.10;99.90;;;;;;4957481;28;20768;-70
2023/03/17 04:30:49;;;;;;;1.35;0.90;;;5.10;99.90;;;;;;4961637;28;20241;-69
2023/03/17 04:33:19;;;;;;;1.80;1.30;;;4.90;99.90;;;;;;4960387;28;20339;-70
2023/03/17 04:35:46;;;;;;;1.33;1.23;;;4.90;99.90;;;;;;4964703;28;20200;-69
2023/03/17 04:38:16;;;;;;;1.40;1.30;;;4.80;99.90;;;;;;4967212;28;20255;-70
2023/03/17 04:40:44;;;;;;;1.38;1.27;;;4.80;99.90;;;;;;4963732;28;20319;-70
2023/03/17 04:43:12;;;;;;;1.17;1.08;;;4.80;99.90;;;;;;4962874;28;20301;-69
2023/03/17 04:45:39;;;;;;;1.00;0.90;;;4.80;99.90;;;;;;4964178;28;20211;-70
2023/03/17 04:48:07;;;;;;;2.17;1.52;;;4.80;99.90;;;;;;4965818;28;20266;-70
2023/03/17 04:50:35;;;;;;;1.30;0.90;;;4.80;99.90;;;;;;4963585;28;20222;-70
2023/03/17 04:53:03;;;;;;;1.45;1.10;;;4.90;99.90;;;;;;4961719;28;20308;-70
2023/03/17 04:55:32;;;;;;;0.95;0.85;;;4.80;99.90;;;;;;4962284;28;20247;-70
2023/03/17 04:58:00;;;;;;;1.52;1.20;;;4.90;99.90;;;;;;4965092;28;20241;-70
2023/03/17 05:00:28;;;;;;;1.13;1.05;;;5.20;99.90;;;;;;4964517;28;20256;-70
2023/03/17 05:02:56;;;;;;;1.23;1.15;;;5.40;99.90;;;;;;4961603;28;20678;-70
2023/03/17 05:05:24;;;;;;;1.70;1.40;;;5.50;99.90;;;;;;4959521;28;20244;-70
2023/03/17 05:07:52;;;;;;;1.20;0.75;;;5.60;99.90;;;;;;4960801;28;20309;-70
2023/03/17 05:10:20;;;;;;;1.33;1.20;;;5.60;99.90;;;;;;4961194;28;20237;-70
2023/03/17 05:12:49;;;;;;;2.22;1.77;;;5.40;99.90;;;;;;4963996;28;20233;-70
2023/03/17 05:15:17;;;;;;;1.42;1.10;;;5.20;99.90;;;;;;4964568;28;20205;-69
2023/03/17 05:17:45;;;;;;;1.40;1.20;;;5.20;99.90;;;;;;4962199;28;20215;-69
2023/03/17 05:20:14;;;;;;;1.40;1.05;;;5.10;99.90;;;;;;4960316;28;20249;-70
2023/03/17 05:22:42;;;;;;;1.20;1.10;;;5.10;99.90;;;;;;4960346;28;20211;-70
2023/03/17 05:25:10;;;;;;;0.80;0.80;;;4.90;99.90;;;;;;4961081;28;20241;-70
2023/03/17 05:27:38;;;;;;;1.70;1.10;;;5.20;99.90;;;;;;4964597;28;20316;-69
2023/03/17 05:30:09;;;;;;;1.15;1.05;;;5.40;99.90;;;;;;4958146;28;20659;-67
2023/03/17 05:32:36;;;;;;;1.10;1.00;;;5.40;99.90;;;;;;4953626;28;20734;-66
2023/03/17 05:35:05;;;;;;;1.02;0.95;;;5.20;99.90;;;;;;4964552;28;20297;-66
2023/03/17 05:37:33;;;;;;;1.35;1.10;;;5.00;99.90;;;;;;4952871;28;20248;-66
2023/03/17 05:40:01;;;;;;;1.35;1.20;;;4.80;99.90;;;;;;4956133;28;20321;-66
2023/03/17 05:42:29;;;;;;;1.70;1.33;;;4.70;99.90;;;;;;4965190;28;20263;-66
2023/03/17 05:44:58;;;;;;;1.30;1.20;;;4.60;99.90;;;;;;4960519;28;20240;-66
2023/03/17 05:47:27;;;;;;;1.10;0.80;;;4.50;99.90;;;;;;4960284;28;20236;-66
2023/03/17 05:49:55;;;;;;;1.45;1.35;;;4.50;99.90;;;;;;4952394;28;20679;-66
2023/03/17 05:52:22;;;;;;;1.52;1.02;;;4.50;99.90;;;;;;4960314;28;20207;-65
2023/03/17 05:54:52;;;;;;;1.25;0.90;;;4.50;99.90;;;;;;4962937;28;20211;-65
2023/03/17 05:57:20;;;;;;;1.60;1.25;;;4.50;99.90;;;;;;4957214;28;20233;-65
2023/03/17 05:59:49;;;;;;;1.38;1.27;;;4.50;99.90;;;;;;4959711;28;20239;-65
2023/03/17 06:02:17;;;;;;;2.35;1.75;;;4.50;99.90;;;;;;4963192;28;20292;-65
2023/03/17 06:04:46;;;;;;;1.40;1.30;;;4.50;99.90;;;;;;4960711;28;20253;-66
2023/03/17 06:07:14;;;;;;;2.17;1.55;;;4.50;99.90;;;;;;4965760;28;20320;-66
2023/03/17 06:09:42;;;;;;;1.67;1.58;;;4.40;99.90;;;;;;4961687;28;20320;-66
2023/03/17 06:12:10;;;;;;;1.23;1.08;;;4.40;99.90;;;;;;4963525;28;20202;-66
2023/03/17 06:14:38;;;;;;;1.38;1.02;;;4.40;99.90;;;;;;4955061;28;20294;-67
2023/03/17 06:17:06;;;;;;;1.70;1.50;;;4.40;99.90;;;;;;4963316;28;20211;-66
2023/03/17 06:19:34;;;;;;;1.17;0.70;;;4.50;99.90;;;;;;4962599;28;20280;-66
2023/03/17 06:22:05;;;;;;;1.10;1.00;;;4.50;99.90;;;;;;4960299;28;20218;-66
2023/03/17 06:24:33;;;;;;;1.38;1.25;;;4.50;99.90;;;;;;4953039;28;20236;-65
2023/03/17 06:27:02;;;;;;;1.73;1.30;;;4.70;99.90;;;;;;4963536;28;20248;-66
2023/03/17 06:29:30;;;;;;;2.38;1.15;;;4.70;99.90;;;;;;4959982;28;20324;-65
2023/03/17 06:31:57;;;;;;;1.15;0.88;;;4.80;99.90;;;;;;4950666;28;20735;-66
2023/03/17 06:34:44;;;;;;;1.65;1.30;;;4.80;99.90;;;;;;4961087;28;20209;-68
2023/03/17 06:37:13;;;;;;;1.77;1.67;;;5.00;99.90;;;;;;4955719;28;20315;-66
2023/03/17 06:39:41;;;;;;;1.77;1.55;;;5.10;99.90;;;;;;4947440;28;20309;-66
2023/03/17 06:42:09;;;;;;;1.50;1.35;;;5.20;99.90;;;;;;4955372;28;20220;-66
2023/03/17 06:44:37;;;;;;;2.78;1.95;;;5.30;99.90;;;;;;4963393;28;20229;-66
2023/03/17 06:47:05;;;;;;;1.67;1.27;;;5.40;99.90;;;;;;4963558;28;20221;-65
2023/03/17 06:49:34;;;;;;;1.33;1.02;;;5.40;99.90;;;;;;4962771;28;20717;-65
2023/03/17 06:52:01;;;;;;;1.45;1.27;;;5.50;99.90;;;;;;4963757;28;20213;-66
2023/03/17 06:54:31;;;;;;;1.60;0.93;;;5.60;99.90;;;;;;4955320;28;20603;-67
2023/03/17 06:56:59;;;;;;;1.55;1.27;;;5.70;99.90;;;;;;4957348;28;20309;-66
2023/03/17 06:59:29;;;;;;;2.90;1.23;;;5.80;99.90;;;;;;4961267;28;20503;-66
2023/03/17 07:01:57;;;;;;;1.30;1.15;;;5.90;99.90;;;;;;4960046;28;20213;-66
2023/03/17 07:04:26;;;;;;;1.27;1.17;;;6.00;99.90;;;;;;4952009;28;20254;-66
2023/03/17 07:06:54;;;;;;;1.40;0.88;;;6.10;99.90;;;;;;4948092;28;20228;-66
2023/03/17 07:09:22;;;;;;;1.70;1.60;;;6.20;99.90;;;;;;4958152;28;20224;-66
2023/03/17 07:11:51;;;;;;;1.27;0.70;;;6.30;99.90;;;;;;4953973;28;20685;-66
2023/03/17 07:14:19;;;;;;;0.80;0.80;;;6.40;99.90;;;;;;4953853;28;20296;-66
2023/03/17 07:16:48;;;;;;;1.73;1.63;;;6.40;99.90;;;;;;4956216;28;20644;-66
2023/03/17 07:19:17;;;;;;;1.73;1.13;;;6.50;99.90;;;;;;4961986;28;20245;-66
2023/03/17 07:21:45;;;;;;;0.90;0.80;;;6.60;99.90;;;;;;4952566;28;20209;-66
2023/03/17 07:24:14;;;;;;;3.00;2.00;;;6.70;99.90;;;;;;4952216;28;20209;-66
2023/03/17 07:26:41;;;;;;;1.13;0.90;;;6.90;99.90;;;;;;4954820;28;20214;-66
2023/03/17 07:29:11;;;;;;;1.10;0.98;;;7.00;99.90;;;;;;4955230;28;20230;-66
2023/03/17 07:31:38;;;;;;;1.40;1.02;;;7.10;99.90;;;;;;4954950;28;20304;-66
2023/03/17 07:34:06;;;;;;;1.35;1.00;;;7.30;99.90;;;;;;4955027;28;20258;-66
2023/03/17 07:36:34;;;;;;;1.65;1.02;;;7.40;99.90;;;;;;4955157;28;20234;-66
2023/03/17 07:39:03;;;;;;;1.17;1.05;;;7.40;99.90;;;;;;4954993;28;20258;-66
2023/03/17 07:41:31;;;;;;;1.20;1.10;;;7.60;99.90;;;;;;4954923;28;20253;-66
2023/03/17 07:43:59;;;;;;;1.10;1.00;;;7.60;99.90;;;;;;4954149;28;20305;-66
2023/03/17 07:46:28;;;;;;;0.80;0.77;;;7.60;99.90;;;;;;4954893;28;20214;-66
2023/03/17 07:48:56;;;;;;;1.38;1.27;;;7.70;99.90;;;;;;4954693;28;20237;-66
2023/03/17 07:51:26;;;;;;;1.65;1.15;;;7.90;99.90;;;;;;4954860;28;20211;-66
2023/03/17 07:54:01;;;;;;;2.65;1.67;;;8.00;99.90;;;;;;4954778;28;20277;-66
2023/03/17 07:56:30;;;;;;;2.20;1.65;;;8.10;99.90;;;;;;4955247;28;20218;-66
2023/03/17 07:58:59;;;;;;;1.30;1.20;;;8.30;99.90;;;;;;4957523;28;20222;-66
2023/03/17 08:01:29;;;;;;;0.80;0.60;;;8.40;99.90;;;;;;4965797;28;20297;-66
2023/03/17 08:03:57;;;;;;;1.55;1.10;;;8.50;99.90;;;;;;4963298;28;20243;-66
2023/03/17 08:06:25;;;;;;;1.25;0.93;;;8.60;99.90;;;;;;4962568;28;20215;-66
2023/03/17 08:08:53;;;;;;;1.20;1.10;;;8.70;99.90;;;;;;4964568;28;20293;-66
2023/03/17 08:11:22;;;;;;;1.77;1.33;;;8.80;99.90;;;;;;4965829;28;20291;-66
2023/03/17 08:13:50;;;;;;;0.70;0.65;;;9.00;99.90;;;;;;4964036;28;20336;-66
2023/03/17 08:16:17;;;;;;;0.70;0.70;;;9.20;99.90;;;;;;4962591;28;20586;-66
2023/03/17 08:18:47;;;;;;;0.88;0.60;;;9.30;99.90;;;;;;4963196;28;20232;-66
2023/03/17 08:21:15;;;;;;;1.73;1.27;;;9.60;99.90;;;;;;4965639;28;20277;-66
2023/03/17 08:23:43;;;;;;;1.38;0.80;;;9.80;99.90;;;;;;4964635;28;20720;-66
2023/03/17 08:26:13;;;;;;;1.15;1.05;;;10.00;99.90;;;;;;4954121;28;20207;-66
2023/03/17 08:28:41;;;;;;;1.00;0.70;;;10.10;99.90;;;;;;4962233;28;20229;-66
2023/03/17 08:31:12;;;;;;;0.98;0.82;;;10.30;99.90;;;;;;4965617;28;20206;-66
2023/03/17 08:33:41;;;;;;;0.88;0.60;;;10.30;99.90;;;;;;4963790;28;20257;-66
2023/03/17 08:36:11;;;;;;;0.70;0.60;;;10.50;99.90;;;;;;4962091;28;20733;-66
2023/03/17 08:38:41;;;;;;;0.80;0.75;;;10.60;99.90;;;;;;4962113;28;20278;-66
2023/03/17 08:41:12;;;;;;;1.10;0.90;;;10.70;99.90;;;;;;4965615;28;20293;-66
2023/03/17 08:43:41;;;;;;;2.15;1.20;;;10.80;99.90;;;;;;4964960;28;20221;-66
2023/03/17 08:46:15;;;;;;;0.60;0.55;;;10.90;99.90;;;;;;4961636;28;20290;-66
2023/03/17 08:48:45;;;;;;;0.95;0.63;;;11.10;99.90;;;;;;4962105;28;20254;-66
2023/03/17 08:51:15;;;;;;;0.90;0.73;;;11.30;99.90;;;;;;4965458;28;20638;-66
2023/03/17 08:53:46;;;;;;;1.20;1.10;;;11.30;99.90;;;;;;4963861;28;20211;-66
2023/03/17 08:56:15;;;;;;;1.35;0.95;;;11.60;99.90;;;;;;4953515;28;20227;-66
2023/03/17 08:58:44;;;;;;;0.60;0.43;;;11.80;99.90;;;;;;4953929;28;20587;-66
2023/03/17 09:01:14;;;;;;;0.80;0.75;;;12.00;99.90;;;;;;4964852;28;20210;-66
2023/03/17 09:03:42;;;;;;;0.70;0.60;;;12.10;99.90;;;;;;4964461;28;20203;-66
2023/03/17 09:06:11;;;;;;;0.60;0.40;;;12.40;99.90;;;;;;4961720;28;20641;-66
2023/03/17 09:08:43;;;;;;;0.77;0.77;;;12.40;99.90;;;;;;4961733;28;20223;-66
2023/03/17 09:11:15;;;;;;;0.60;0.60;;;12.40;99.90;;;;;;4954378;28;20250;-66
2023/03/17 09:13:43;;;;;;;0.60;0.50;;;12.60;99.90;;;;;;4961530;28;20246;-66
2023/03/17 09:16:11;;;;;;;0.60;0.50;;;12.70;99.90;;;;;;4964837;28;20767;-66
2023/03/17 09:18:39;;;;;;;1.02;0.93;;;12.60;99.90;;;;;;4964848;28;20241;-66
2023/03/17 09:21:08;;;;;;;1.45;1.00;;;12.40;99.90;;;;;;4953249;28;20313;-66
2023/03/17 09:23:36;;;;;;;0.60;0.40;;;12.50;99.90;;;;;;4961234;28;20212;-66
2023/03/17 09:26:06;;;;;;;1.02;0.80;;;12.60;99.90;;;;;;4953446;28;20286;-66
2023/03/17 09:28:34;;;;;;;0.95;0.77;;;12.70;99.90;;;;;;4953132;28;20209;-66
2023/03/17 09:31:04;;;;;;;0.80;0.70;;;12.80;99.90;;;;;;4963631;28;20229;-66
2023/03/17 09:33:32;;;;;;;0.90;0.90;;;12.90;99.90;;;;;;4964581;28;20225;-66
2023/03/17 09:36:00;;;;;;;1.27;1.13;;;12.70;99.90;;;;;;4961772;28;20210;-66
2023/03/17 09:38:28;;;;;;;0.70;0.50;;;12.50;99.90;;;;;;4961144;28;20210;-66
2023/03/17 09:41:02;;;;;;;1.23;0.57;;;12.60;99.90;;;;;;4962740;28;20302;-66
2023/03/17 09:43:41;;;;;;;1.15;0.90;;;12.90;99.90;;;;;;4964350;28;20200;-67
2023/03/17 09:46:26;;;;;;;1.00;1.00;;;13.20;99.90;;;;;;4953322;28;20211;-66
2023/03/17 09:48:59;;;;;;;0.60;0.47;;;13.40;99.90;;;;;;4962418;28;20231;-66
2023/03/17 09:51:29;;;;;;;0.95;0.85;;;13.40;99.90;;;;;;4964269;28;20206;-67
2023/03/17 09:54:00;;;;;;;0.82;0.82;;;13.50;99.90;;;;;;4962172;28;20202;-67
2023/03/17 09:56:31;;;;;;;0.60;0.50;;;13.60;99.90;;;;;;4952650;28;20210;-66
2023/03/17 09:59:05;;;;;;;1.00;1.00;;;13.70;99.90;;;;;;4954837;28;20322;-67
2023/03/17 10:01:33;;;;;;;0.85;0.85;;;13.70;99.90;;;;;;4964140;28;20207;-66
2023/03/17 10:04:02;;;;;;;1.33;1.20;;;13.60;99.90;;;;;;4961629;28;20257;-66
2023/03/17 10:06:39;;;;;;;1.27;1.02;;;13.60;99.90;;;;;;4964003;28;20198;-66
2023/03/17 10:09:18;;;;;;;0.77;0.77;;;13.70;99.90;;;;;;4970160;28;20281;-66
2023/03/17 10:11:48;;;;;;;0.70;0.60;;;13.60;99.90;;;;;;4970102;28;20309;-66
2023/03/17 10:14:33;;;;;;;0.57;0.43;;;13.70;99.90;;;;;;4966950;28;20579;-66
2023/03/17 10:17:03;;;;;;;1.50;1.35;;;13.80;99.90;;;;;;4969091;28;20602;-66
2023/03/17 10:19:35;;;;;;;0.57;0.43;;;13.70;99.90;;;;;;4994454;22;20713;-62
2023/03/17 10:22:10;;;;;;;0.60;0.40;;;13.70;99.90;;;;;;4969232;28;20286;-62
2023/03/17 10:24:43;;;;;;;0.80;0.73;;;13.70;99.90;;;;;;4962880;28;20257;-62
2023/03/17 10:27:14;;;;;;;1.10;0.95;;;13.80;99.90;;;;;;4959091;28;20222;-62
2023/03/17 10:29:44;;;;;;;0.60;0.60;;;13.80;99.90;;;;;;4963938;28;20619;-62
2023/03/17 10:32:15;;;;;;;0.60;0.60;;;13.80;99.90;;;;;;4944632;28;20670;-62
2023/03/17 10:34:44;;;;;;;0.80;0.70;;;13.70;99.90;;;;;;4951424;28;20211;-62
2023/03/17 10:37:16;;;;;;;0.98;0.88;;;13.90;99.90;;;;;;4943432;29;20303;-62
2023/03/17 10:39:47;;;;;;;0.80;0.80;;;14.10;99.90;;;;;;4951253;28;20255;-62
2023/03/17 10:42:22;;;;;;;0.80;0.80;;;14.30;99.90;;;;;;4951653;29;20234;-61
2023/03/17 10:44:55;;;;;;;0.80;0.73;;;14.20;99.90;;;;;;4951233;28;20235;-61
2023/03/17 10:47:31;;;;;;;0.60;0.50;;;14.40;99.90;;;;;;4951014;28;20781;-62
2023/03/17 10:50:04;;;;;;;2.20;1.00;;;14.40;99.90;;;;;;4951045;28;20254;-62
2023/03/17 10:52:38;;;;;;;0.60;0.50;;;14.30;99.90;;;;;;4950885;28;20670;-63
2023/03/17 10:55:09;;;;;;;0.68;0.68;;;14.40;99.90;;;;;;4948152;28;20262;-63
2023/03/17 10:57:38;;;;;;;1.20;1.08;;;14.30;99.90;;;;;;4946374;29;20203;-62
2023/03/17 11:00:16;;;;;;;2.03;1.13;;;14.30;99.90;;;;;;4948172;28;20481;-62
2023/03/17 11:02:51;;;;;;;0.60;0.50;;;14.40;99.90;;;;;;4955183;29;20293;-63
2023/03/17 11:05:23;;;;;;;1.00;0.95;;;14.40;99.90;;;;;;4944795;29;20202;-63
2023/03/17 11:07:57;;;;;;;0.60;0.55;;;14.00;99.90;;;;;;4949955;28;20294;-62
2023/03/17 11:10:27;;;;;;;0.73;0.70;;;14.30;99.90;;;;;;4947388;28;20233;-63
2023/03/17 11:13:00;;;;;;;0.60;0.60;;;14.60;99.90;;;;;;4948754;29;20212;-62
2023/03/17 11:15:33;;;;;;;1.88;1.02;;;14.90;99.90;;;;;;4950892;28;20235;-62
2023/03/17 11:18:04;;;;;;;0.93;0.60;;;15.10;99.90;;;;;;4947088;28;20298;-62
2023/03/17 11:20:48;;;;;;;0.57;0.43;;;15.20;99.90;;;;;;4944199;28;20242;-63
2023/03/17 11:23:29;;;;;;;0.88;0.70;;;15.10;99.90;;;;;;4944538;29;20671;-63
2023/03/17 11:26:07;;;;;;;1.35;0.98;;;15.20;99.90;;;;;;4936282;29;20219;-62
2023/03/17 11:28:39;;;;;;;0.60;0.60;;;15.20;99.90;;;;;;4942416;29;20669;-62
2023/03/17 11:31:16;;;;;;;0.80;0.50;;;15.20;99.90;;;;;;4944902;28;20314;-63
2023/03/17 11:33:53;;;;;;;1.13;1.00;;;15.60;99.90;;;;;;4944151;29;20612;-62
2023/03/17 11:36:36;;;;;;;1.23;0.88;;;15.80;99.70;;;;;;4937451;29;20250;-63
2023/03/17 11:39:12;;;;;;;0.60;0.40;;;15.70;99.90;;;;;;4952108;29;20482;-63
2023/03/17 11:41:53;;;;;;;0.60;0.50;;;15.70;99.70;;;;;;4944124;29;20589;-63
2023/03/17 11:44:40;;;;;;;0.70;0.50;;;15.90;99.00;;;;;;4937273;29;20214;-62
2023/03/17 11:47:19;;;;;;;0.68;0.50;;;15.70;99.90;;;;;;4946110;29;20291;-62
2023/03/17 11:49:54;;;;;;;0.75;0.75;;;15.80;99.90;;;;;;4947131;28;20262;-63
2023/03/17 11:52:31;;;;;;;0.70;0.63;;;15.90;99.90;;;;;;4936919;29;20294;-63
2023/03/17 11:55:11;;;;;;;1.08;0.75;;;15.60;99.30;;;;;;4942801;29;20298;-63
2023/03/17 11:57:46;;;;;;;0.75;0.60;;;15.80;99.80;;;;;;4943681;29;20226;-63
2023/03/17 12:00:21;;;;;;;0.60;0.50;;;16.00;99.10;;;;;;4946831;29;20301;-63
2023/03/17 12:02:56;;;;;;;0.50;0.40;;;16.20;99.20;;;;;;4947083;28;20246;-63
2023/03/17 12:05:26;;;;;;;0.50;0.38;;;16.40;98.60;;;;;;4943979;29;20211;-62
2023/03/17 12:07:58;;;;;;;0.60;0.50;;;16.40;98.20;;;;;;4943787;29;20212;-63
2023/03/17 12:10:33;;;;;;;1.25;0.80;;;16.40;98.10;;;;;;4954773;28;20573;-63
2023/03/17 12:13:06;;;;;;;0.70;0.52;;;16.20;98.00;;;;;;4945252;28;20222;-62
2023/03/17 12:15:38;;;;;;;3.60;0.82;;;16.00;98.70;;;;;;4943856;29;20216;-63
2023/03/17 12:18:13;;;;;;;1.30;1.20;;;15.90;98.50;;;;;;4945079;29;20671;-63
2023/03/17 12:20:49;;;;;;;0.90;0.70;;;15.90;98.90;;;;;;4948050;28;20266;-62
2023/03/17 12:23:28;;;;;;;0.60;0.50;;;15.90;99.60;;;;;;4939447;29;20265;-63
2023/03/17 12:26:01;;;;;;;0.60;0.60;;;16.00;99.10;;;;;;4945169;28;20682;-64
2023/03/17 12:28:36;;;;;;;0.70;0.70;;;16.10;99.30;;;;;;4948632;28;20211;-63
2023/03/17 12:31:07;;;;;;;0.60;0.60;;;15.90;99.90;;;;;;4945292;28;20281;-62
2023/03/17 12:33:43;;;;;;;0.82;0.80;;;15.80;99.80;;;;;;4943080;29;20299;-63
2023/03/17 12:36:15;;;;;;;1.23;1.13;;;15.80;99.40;;;;;;4945527;29;20294;-63
2023/03/17 12:38:46;;;;;;;0.80;0.68;;;16.00;99.40;;;;;;4946285;28;20704;-63
2023/03/17 12:41:35;;;;;;;0.60;0.60;;;15.90;99.20;;;;;;4946041;28;20862;-63
2023/03/17 12:44:10;;;;;;;0.95;0.75;;;15.90;99.40;;;;;;4944610;28;20216;-63
2023/03/17 12:47:06;;;;;;;1.05;0.75;;;15.90;99.50;;;;;;4949167;29;20741;-63
2023/03/17 12:49:51;;;;;;;1.17;0.52;;;16.00;99.00;;;;;;4936947;29;20204;-63
2023/03/17 12:52:39;;;;;;;1.50;1.15;;;16.00;98.40;;;;;;4935034;29;20522;-63
2023/03/17 12:55:13;;;;;;;1.25;0.75;;;16.10;98.40;;;;;;4941268;29;20596;-63
2023/03/17 12:57:42;;;;;;;0.85;0.60;;;16.10;98.90;;;;;;4935107;29;20778;-63
2023/03/17 13:00:23;;;;;;;0.93;0.50;;;16.00;98.70;;;;;;4950268;28;20235;-63
2023/03/17 13:03:06;;;;;;;5.70;1.02;;;16.00;98.50;;;;;;4942644;29;20204;-63
2023/03/17 13:05:37;;;;;;;1.17;0.73;;;15.80;98.70;;;;;;4942699;29;20294;-62
2023/03/17 13:08:09;;;;;;;0.60;0.50;;;15.90;99.10;;;;;;4943780;29;20216;-63
2023/03/17 13:10:41;;;;;;;0.60;0.50;;;16.00;99.10;;;;;;4945682;28;20310;-63